Time;durP1;ratioP1;P1;durP2;ratioP2;P2;SDS_P1;SDS_P2;PMS_P1;PMS_P2;Temp;Humidity;BMP_temperature;BMP_pressure;BME280_temperature;BME280_humidity;BME280_pressure;Samples;Min_cycle;Max_cycle;Signal;HPM_P1;HPM_P2
2022/01/18 00:00:28;;;;;;;1.67;1.17;;;2.20;1.40;;;2.68;100.00;96986.20;647279;212;31593;-76
2022/01/18 00:03:08;;;;;;;1.50;1.40;;;2.20;1.40;;;2.70;100.00;96978.03;646046;216;31538;-75
2022/01/18 00:05:50;;;;;;;2.10;0.90;;;2.20;1.40;;;2.72;100.00;96979.77;646881;216;31510;-74
2022/01/18 00:08:34;;;;;;;1.40;1.10;;;2.20;1.40;;;2.69;100.00;96983.34;645670;216;31569;-75
2022/01/18 00:11:18;;;;;;;1.93;1.73;;;2.20;1.40;;;2.61;100.00;96980.52;647175;212;42186;-76
2022/01/18 00:14:12;;;;;;;2.62;1.00;;;2.20;1.40;;;2.66;100.00;96982.11;647200;216;32055;-77
2022/01/18 00:19:41;;;;;;;4.32;1.55;;;2.20;1.40;;;2.74;100.00;96988.40;647215;216;31611;-76
2022/01/18 00:22:28;;;;;;;1.25;0.68;;;2.20;1.40;;;2.74;100.00;96990.71;620596;226;31855;-77
2022/01/18 00:25:10;;;;;;;1.37;1.27;;;2.20;1.40;;;2.71;100.00;96984.28;645718;216;42090;-74
2022/01/18 00:27:54;;;;;;;1.30;1.20;;;2.10;1.40;;;2.72;100.00;96980.77;647177;216;31529;-78
2022/01/18 00:31:13;;;;;;;1.12;0.93;;;2.20;1.40;;;2.68;100.00;96985.46;646191;216;31603;-73
2022/01/18 00:36:03;;;;;;;0.90;0.90;;;2.20;1.40;;;2.68;100.00;96986.05;647072;212;31598;-76
2022/01/18 00:38:48;;;;;;;2.05;1.35;;;2.20;1.40;;;2.67;100.00;96991.22;647424;214;31557;-78
2022/01/18 00:41:39;;;;;;;1.37;1.27;;;2.20;1.40;;;2.66;100.00;96998.72;646009;212;31555;-73
2022/01/18 00:44:23;;;;;;;2.42;1.12;;;2.20;1.40;;;2.68;100.00;97000.12;647710;212;31793;-77
2022/01/18 00:47:10;;;;;;;1.00;1.00;;;2.20;1.40;;;2.75;100.00;96998.70;619809;222;31897;-77
2022/01/18 00:50:01;;;;;;;1.73;1.00;;;2.30;1.40;;;2.79;100.00;97004.72;647346;216;31540;-76
2022/01/18 00:52:49;;;;;;;2.50;1.70;;;2.30;1.40;;;2.83;100.00;97010.23;646927;212;31624;-76
2022/01/18 00:55:32;;;;;;;2.80;1.10;;;2.40;1.40;;;2.85;100.00;97015.07;645340;216;32006;-74
2022/01/18 00:58:12;;;;;;;2.80;1.30;;;2.40;1.40;;;2.82;100.00;97016.54;647148;216;31505;-77
2022/01/18 01:01:00;;;;;;;1.80;1.70;;;2.30;1.40;;;2.82;100.00;97016.95;647854;216;31566;-74
2022/01/18 01:03:42;;;;;;;1.80;1.70;;;2.30;1.40;;;2.84;100.00;97028.77;646888;216;31497;-75
2022/01/18 01:06:24;;;;;;;0.70;0.70;;;2.30;1.40;;;2.82;100.00;97032.45;642863;216;31715;-75
2022/01/18 01:09:06;;;;;;;0.98;0.93;;;2.30;1.40;;;2.84;100.00;97032.17;647646;216;31533;-78
2022/01/18 01:11:53;;;;;;;2.10;1.60;;;2.30;1.40;;;2.80;100.00;97022.98;647043;212;31530;-78
2022/01/18 01:14:35;;;;;;;0.70;0.70;;;2.30;1.40;;;2.82;100.00;97027.88;647194;212;32299;-78
2022/01/18 01:17:33;;;;;;;1.50;1.40;;;2.30;1.40;;;2.74;100.00;97031.39;647763;216;32175;-78
2022/01/18 01:36:10;;;;;;;1.55;1.30;;;2.20;1.40;;;2.85;100.00;97065.84;646533;216;42191;-77
2022/01/18 01:44:44;;;;;;;1.20;1.10;;;2.20;1.40;;;2.82;100.00;97067.67;648816;216;31773;-78
2022/01/18 01:47:34;;;;;;;0.65;0.65;;;2.20;1.40;;;2.78;100.00;97062.30;647286;216;31607;-77
2022/01/18 01:50:08;;;;;;;1.37;0.95;;;2.20;1.40;;;2.74;100.00;97063.14;647295;216;31584;-75
2022/01/18 01:52:50;;;;;;;1.52;1.27;;;2.10;1.40;;;2.65;100.00;97059.41;646001;212;31643;-74
2022/01/18 01:55:31;;;;;;;2.95;1.15;;;2.10;1.40;;;2.61;100.00;97050.70;646174;216;32328;-76
2022/01/18 01:58:16;;;;;;;1.50;1.37;;;2.10;1.40;;;2.63;100.00;97051.56;648533;216;33644;-78
2022/01/18 02:01:03;;;;;;;0.77;0.77;;;2.10;1.40;;;2.62;100.00;97047.77;646383;216;31585;-75
2022/01/18 02:03:46;;;;;;;2.10;1.60;;;2.10;1.40;;;2.64;100.00;97053.70;647429;216;31625;-77
2022/01/18 02:06:27;;;;;;;0.60;0.60;;;2.10;1.40;;;2.59;100.00;97049.27;614366;222;32268;-77
2022/01/18 02:09:10;;;;;;;1.50;1.10;;;2.10;1.40;;;2.61;100.00;97046.14;647521;216;31550;-78
2022/01/18 02:12:00;;;;;;;1.50;1.40;;;2.10;1.40;;;2.57;100.00;97040.14;620045;226;32074;-75
2022/01/18 02:14:50;;;;;;;1.30;1.20;;;2.00;1.40;;;2.65;100.00;97040.04;647975;216;31843;-79
2022/01/18 02:23:05;;;;;;;1.48;1.05;;;2.00;1.40;;;2.73;100.00;97028.41;646756;216;31615;-77
2022/01/18 02:25:49;;;;;;;1.70;1.60;;;2.00;1.40;;;2.65;100.00;97026.64;648236;216;31591;-78
2022/01/18 02:28:31;;;;;;;1.35;0.85;;;2.00;1.40;;;2.64;100.00;97020.45;631828;221;31706;-79
2022/01/18 02:31:14;;;;;;;1.37;1.27;;;2.00;1.40;;;2.59;100.00;97012.81;647844;213;32167;-75
2022/01/18 02:35:51;;;;;;;3.90;1.45;;;2.00;1.40;;;2.56;100.00;97008.59;649461;216;31573;-78
2022/01/18 02:38:32;;;;;;;1.45;1.00;;;2.00;1.40;;;2.60;100.00;97013.00;647088;212;31602;-78
2022/01/18 02:41:29;;;;;;;2.10;1.37;;;2.00;1.40;;;2.62;100.00;97004.41;621248;226;42509;-79
2022/01/18 02:44:13;;;;;;;1.70;1.23;;;2.00;1.40;;;2.66;100.00;97007.23;645935;212;31559;-75
2022/01/18 02:52:14;;;;;;;2.50;1.50;;;2.00;1.40;;;2.70;100.00;97007.20;647468;216;31605;-75
2022/01/18 02:54:59;;;;;;;1.67;1.00;;;2.00;1.40;;;2.68;100.00;97013.83;646952;212;31936;-75
2022/01/18 02:57:55;;;;;;;1.90;1.00;;;2.10;1.40;;;2.64;100.00;97020.03;647714;212;31814;-77
2022/01/18 03:00:43;;;;;;;2.00;1.80;;;2.10;1.40;;;2.63;100.00;97022.77;645879;216;31556;-77
2022/01/18 03:03:24;;;;;;;1.40;1.30;;;2.10;1.40;;;2.62;100.00;97031.09;620133;226;32231;-80
2022/01/18 03:06:04;;;;;;;1.00;0.90;;;2.10;1.40;;;2.74;100.00;97032.90;614669;226;32196;-80
2022/01/18 03:08:46;;;;;;;2.37;2.17;;;2.10;1.40;;;2.67;100.00;97033.30;619946;226;31992;-79
2022/01/18 03:11:33;;;;;;;1.75;1.65;;;2.10;1.40;;;2.73;100.00;97033.36;648252;216;31686;-75
2022/01/18 03:14:15;;;;;;;1.95;1.52;;;2.10;1.40;;;2.69;100.00;97032.17;647440;216;31573;-75
2022/01/18 03:16:57;;;;;;;2.70;1.37;;;2.10;1.40;;;2.66;100.00;97026.57;619725;222;31895;-75
2022/01/18 03:19:41;;;;;;;2.40;1.50;;;2.10;1.40;;;2.66;100.00;97034.02;646390;212;31537;-77
2022/01/18 03:22:29;;;;;;;1.73;1.45;;;2.10;1.40;;;2.67;100.00;97043.23;648908;212;31609;-78
2022/01/18 03:25:25;;;;;;;2.40;2.20;;;2.20;1.40;;;2.71;100.00;97047.41;618246;226;32050;-74
2022/01/18 03:30:53;;;;;;;1.90;1.60;;;2.10;1.40;;;2.75;100.00;97040.61;649106;216;31774;-78
2022/01/18 03:35:51;;;;;;;1.25;0.85;;;2.20;1.40;;;2.84;100.00;97040.20;646260;212;44026;-75
2022/01/18 03:38:36;;;;;;;1.40;1.23;;;2.10;1.40;;;2.83;100.00;97041.38;618804;222;32262;-75
2022/01/18 03:41:18;;;;;;;3.00;1.60;;;2.20;1.40;;;2.78;100.00;97044.75;646461;212;31553;-75
2022/01/18 03:43:59;;;;;;;2.00;1.35;;;2.20;1.40;;;2.85;100.00;97040.27;646821;216;31572;-74
2022/01/18 03:46:41;;;;;;;1.75;1.65;;;2.10;1.40;;;2.91;100.00;97039.98;646647;212;31576;-74
2022/01/18 03:49:27;;;;;;;3.50;1.80;;;2.10;1.40;;;2.85;100.00;97044.22;647066;212;31553;-76
2022/01/18 03:52:05;;;;;;;2.70;2.50;;;2.10;1.40;;;2.96;100.00;97046.14;647648;212;33472;-75
2022/01/18 03:54:47;;;;;;;1.42;1.27;;;2.20;1.40;;;2.88;100.00;97043.61;647601;212;31572;-75
2022/01/18 03:57:32;;;;;;;1.90;1.58;;;2.20;1.40;;;2.85;100.00;97052.73;647066;212;32207;-74
2022/01/18 04:00:15;;;;;;;3.65;1.62;;;2.10;1.40;;;2.89;100.00;97053.56;648156;212;31544;-77
2022/01/18 04:02:58;;;;;;;1.77;1.10;;;2.10;1.40;;;2.95;100.00;97050.34;646315;212;31586;-74
2022/01/18 04:05:38;;;;;;;2.30;2.10;;;2.10;1.40;;;2.96;100.00;97048.44;647595;216;31934;-75
2022/01/18 04:08:26;;;;;;;3.60;1.70;;;2.10;1.40;;;2.94;100.00;97047.16;647740;216;31636;-80
2022/01/18 04:11:14;;;;;;;1.50;1.40;;;2.10;1.40;;;2.91;100.00;97053.20;619422;226;33193;-75
2022/01/18 04:13:55;;;;;;;1.80;1.70;;;2.10;1.40;;;2.90;100.00;97052.27;647293;212;31582;-76
2022/01/18 04:16:58;;;;;;;1.27;1.27;;;2.10;1.40;;;2.86;100.00;97061.94;647945;216;39491;-79
2022/01/18 04:25:51;;;;;;;2.22;2.10;;;2.10;1.40;;;2.79;100.00;97058.37;647125;212;32150;-75
2022/01/18 04:28:07;;;;;;;1.05;0.80;;;2.10;1.40;;;2.80;100.00;97073.95;621280;226;31901;-79
2022/01/18 04:30:43;;;;;;;1.77;1.67;;;2.10;1.40;;;2.85;100.00;97072.66;647396;212;31577;-77
2022/01/18 04:35:50;;;;;;;0.75;0.75;;;2.10;1.40;;;2.85;100.00;97075.17;647336;216;31792;-75
2022/01/18 04:38:34;;;;;;;3.50;1.70;;;2.10;1.40;;;2.90;100.00;97075.29;620102;226;31931;-79
2022/01/18 04:41:18;;;;;;;1.37;1.27;;;2.10;1.40;;;2.87;100.00;97079.00;620838;226;31892;-79
2022/01/18 04:44:16;;;;;;;1.67;1.25;;;2.10;1.40;;;2.88;100.00;97083.97;619642;226;32028;-75
2022/01/18 04:49:32;;;;;;;1.40;1.30;;;2.10;1.40;;;2.82;100.00;97079.08;645773;216;31544;-74
2022/01/18 04:52:19;;;;;;;1.00;0.90;;;2.10;1.40;;;2.87;100.00;97084.05;620275;222;31849;-78
2022/01/18 04:55:10;;;;;;;1.62;1.30;;;2.10;1.40;;;2.97;100.00;97083.58;648058;212;31843;-77
2022/01/18 04:57:52;;;;;;;2.70;1.57;;;2.10;1.40;;;2.89;100.00;97087.59;618676;222;37046;-76
2022/01/18 05:00:34;;;;;;;1.40;1.25;;;2.10;1.40;;;2.91;100.00;97086.14;647745;216;31560;-75
2022/01/18 05:03:15;;;;;;;2.28;2.00;;;2.10;1.40;;;2.95;100.00;97089.65;646208;216;31561;-75
2022/01/18 05:05:59;;;;;;;1.40;1.30;;;2.10;1.40;;;2.91;100.00;97089.20;644948;212;31883;-77
2022/01/18 05:08:39;;;;;;;1.48;1.30;;;2.10;1.40;;;2.99;100.00;97089.93;646657;212;31569;-77
2022/01/18 05:11:23;;;;;;;1.60;1.50;;;2.00;1.40;;;2.88;100.00;97087.00;648016;216;31523;-75
2022/01/18 05:14:22;;;;;;;1.50;1.30;;;2.00;1.40;;;2.94;100.00;97085.98;646920;212;31826;-76
2022/01/18 05:19:20;;;;;;;1.52;1.15;;;2.00;1.40;;;2.73;100.00;97089.36;646616;216;31584;-75
2022/01/18 05:24:57;;;;;;;1.90;1.50;;;1.70;1.40;;;2.27;100.00;97080.80;619979;226;32014;-78
2022/01/18 05:27:40;;;;;;;1.73;1.62;;;1.40;1.40;;;2.13;100.00;97078.11;618860;226;31844;-76
2022/01/18 05:30:27;;;;;;;2.00;1.48;;;1.30;1.40;;;2.01;100.00;97086.06;647674;216;31616;-79
2022/01/18 05:35:54;;;;;;;1.30;1.23;;;1.10;1.40;;;1.73;100.00;97087.65;620532;222;31945;-78
2022/01/18 05:38:35;;;;;;;1.80;1.10;;;0.90;1.40;;;1.50;100.00;97087.30;648850;216;31554;-79
2022/01/18 05:41:19;;;;;;;1.92;1.80;;;0.70;1.40;;;1.38;100.00;97084.09;646965;216;42729;-75
2022/01/18 05:44:01;;;;;;;3.50;1.87;;;0.50;1.40;;;1.30;100.00;97082.53;645730;213;32066;-77
2022/01/18 05:46:42;;;;;;;2.47;1.65;;;0.50;1.40;;;1.21;100.00;97094.25;645433;216;42141;-77
2022/01/18 05:49:27;;;;;;;5.10;1.73;;;0.30;1.40;;;1.09;100.00;97087.82;647774;216;31532;-77
2022/01/18 05:52:09;;;;;;;1.45;0.95;;;0.30;1.40;;;1.02;100.00;97092.54;646269;216;42196;-75
2022/01/18 05:54:51;;;;;;;1.90;1.80;;;0.10;1.40;;;0.89;100.00;97098.02;619066;226;31968;-74
2022/01/18 05:57:32;;;;;;;1.67;1.58;;;0.00;1.40;;;0.78;100.00;97097.70;618239;226;31999;-74
2022/01/18 06:00:21;;;;;;;1.55;1.45;;;-0.10;1.40;;;0.61;100.00;97098.55;620353;226;31957;-77
2022/01/18 06:03:02;;;;;;;2.25;2.10;;;-0.40;1.40;;;0.53;100.00;97102.96;647882;212;31758;-75
2022/01/18 06:08:33;;;;;;;1.77;1.62;;;-0.30;1.40;;;0.68;100.00;97099.10;621055;226;31895;-78
2022/01/18 06:11:21;;;;;;;3.10;1.20;;;-0.10;1.40;;;0.65;100.00;97096.83;647371;216;42203;-76
2022/01/18 06:14:06;;;;;;;2.10;0.90;;;-0.20;1.40;;;0.56;100.00;97101.11;646108;216;32242;-75
2022/01/18 06:16:48;;;;;;;1.70;0.50;;;-0.20;1.40;;;0.66;100.00;97105.28;620277;226;32086;-75
2022/01/18 06:19:29;;;;;;;1.30;1.20;;;0.00;1.40;;;0.71;100.00;97106.66;647480;212;31685;-75
2022/01/18 06:22:11;;;;;;;2.80;2.37;;;0.00;1.40;;;0.72;100.00;97104.52;631281;222;32396;-75
2022/01/18 06:24:53;;;;;;;2.80;2.30;;;-0.10;1.40;;;0.73;100.00;97108.65;647365;216;31715;-78
2022/01/18 06:27:34;;;;;;;2.25;2.15;;;0.00;1.40;;;0.63;100.00;97112.19;646240;216;31649;-76
2022/01/18 06:30:16;;;;;;;1.57;1.37;;;-0.30;1.40;;;0.62;100.00;97111.39;646632;216;31927;-75
2022/01/18 06:32:58;;;;;;;2.10;1.10;;;-0.30;1.40;;;0.70;100.00;97108.97;647243;216;31527;-77
2022/01/18 06:35:53;;;;;;;1.65;1.55;;;-0.10;1.40;;;0.70;100.00;97104.52;647314;212;31629;-78
2022/01/18 06:38:41;;;;;;;2.05;1.85;;;0.00;1.40;;;0.70;100.00;97111.78;646330;216;31586;-74
2022/01/18 06:41:25;;;;;;;1.50;1.40;;;0.00;1.40;;;0.75;100.00;97116.84;647928;216;42732;-75
2022/01/18 06:44:07;;;;;;;1.60;1.00;;;0.00;1.40;;;0.80;100.00;97126.02;646347;212;31525;-76
2022/01/18 06:46:49;;;;;;;1.33;1.17;;;0.10;1.40;;;0.75;100.00;97131.42;646236;216;31588;-74
2022/01/18 06:49:30;;;;;;;1.87;1.52;;;0.00;1.40;;;0.84;100.00;97144.34;645608;216;31560;-76
2022/01/18 06:52:18;;;;;;;1.05;1.05;;;0.10;1.40;;;0.89;100.00;97143.70;647557;216;31517;-79
2022/01/18 06:55:02;;;;;;;2.30;2.10;;;0.10;1.40;;;0.81;100.00;97144.05;646468;212;42375;-74
2022/01/18 06:57:47;;;;;;;1.90;0.70;;;-0.10;1.40;;;0.83;100.00;97149.81;619539;226;32079;-75
2022/01/18 07:00:28;;;;;;;1.25;1.15;;;-0.10;1.40;;;0.94;100.00;97155.33;646057;212;32369;-74
2022/01/18 07:03:12;;;;;;;1.55;1.45;;;0.00;1.40;;;1.03;100.00;97159.09;648373;212;32095;-79
2022/01/18 07:06:00;;;;;;;1.50;1.20;;;0.10;1.40;;;1.17;100.00;97165.88;644833;216;32714;-75
2022/01/18 07:08:41;;;;;;;4.00;2.00;;;0.20;1.40;;;1.34;100.00;97167.13;619287;222;31849;-74
2022/01/18 07:11:23;;;;;;;2.78;2.15;;;0.20;1.40;;;1.42;100.00;97165.58;647593;213;31501;-77
2022/01/18 07:14:05;;;;;;;1.90;1.30;;;0.30;1.40;;;1.42;100.00;97167.67;647350;212;31588;-76
2022/01/18 07:16:46;;;;;;;3.50;2.10;;;0.40;1.40;;;1.41;100.00;97168.80;646316;216;32042;-75
2022/01/18 07:19:32;;;;;;;0.85;0.82;;;0.40;1.40;;;1.44;100.00;97174.95;646811;212;31584;-77
2022/01/18 07:22:16;;;;;;;1.45;1.35;;;0.40;1.40;;;1.46;100.00;97170.48;646824;212;31588;-75
2022/01/18 07:24:59;;;;;;;1.05;1.00;;;0.40;1.40;;;1.51;100.00;97172.66;618559;226;31939;-75
2022/01/18 07:27:40;;;;;;;3.20;1.00;;;0.50;1.40;;;1.43;100.00;97171.33;619057;226;31965;-75
2022/01/18 07:30:27;;;;;;;2.60;1.20;;;0.40;1.40;;;1.40;100.00;97180.34;646549;212;32162;-79
2022/01/18 07:35:51;;;;;;;4.00;2.08;;;0.20;1.40;;;1.43;100.00;97185.56;647154;212;31913;-75
2022/01/18 07:38:35;;;;;;;1.42;1.33;;;0.30;1.40;;;1.64;100.00;97184.48;619978;226;31825;-80
2022/01/18 07:41:22;;;;;;;1.60;1.30;;;0.50;1.40;;;1.93;100.00;97189.39;647413;212;31657;-75
2022/01/18 07:44:10;;;;;;;3.45;2.75;;;0.70;1.40;;;2.14;100.00;97193.53;648077;216;32104;-79
2022/01/18 07:49:26;;;;;;;1.70;1.30;;;1.20;1.40;;;2.44;100.00;97216.00;647504;213;31580;-80
2022/01/18 07:52:14;;;;;;;2.15;1.95;;;1.20;1.40;;;2.55;100.00;97213.73;648076;216;31685;-75
2022/01/18 07:54:56;;;;;;;1.57;1.47;;;1.30;1.40;;;2.74;100.00;97213.16;647038;216;31944;-77
2022/01/18 07:57:41;;;;;;;1.42;1.33;;;1.40;1.40;;;2.78;100.00;97223.13;647371;216;31741;-77
2022/01/18 08:00:19;;;;;;;0.75;0.75;;;1.40;1.40;;;2.92;100.00;97221.16;646909;214;32314;-74
2022/01/18 08:03:01;;;;;;;1.50;1.40;;;1.40;1.40;;;2.74;100.00;97221.70;646068;212;31541;-75
2022/01/18 08:05:42;;;;;;;6.75;5.10;;;1.40;1.40;;;2.87;100.00;97216.14;647846;212;31565;-75
2022/01/18 08:08:26;;;;;;;3.33;2.55;;;1.50;1.40;;;2.96;100.00;97217.05;645549;216;31595;-74
2022/01/18 08:11:06;;;;;;;4.60;3.75;;;1.50;1.40;;;3.10;100.00;97215.58;646503;216;31672;-75
2022/01/18 08:13:53;;;;;;;2.27;2.17;;;1.60;1.40;;;3.06;100.00;97217.11;649219;216;31599;-79
2022/01/18 08:16:47;;;;;;;2.33;1.77;;;1.60;1.40;;;2.90;100.00;97220.30;648471;216;31843;-79
2022/01/18 08:19:19;;;;;;;2.40;1.90;;;1.50;1.40;;;2.87;100.00;97219.97;646031;212;31569;-74
2022/01/18 08:22:03;;;;;;;1.52;1.40;;;1.60;1.40;;;2.88;100.00;97218.31;648006;216;31537;-80
2022/01/18 08:24:46;;;;;;;1.35;1.25;;;1.60;1.40;;;2.93;100.00;97221.09;646382;216;31667;-75
2022/01/18 08:27:28;;;;;;;2.40;2.30;;;1.60;1.40;;;2.88;100.00;97220.13;642097;216;31591;-75
2022/01/18 08:30:10;;;;;;;1.50;1.10;;;1.70;1.40;;;2.80;100.00;97215.98;646674;212;32095;-75
2022/01/18 08:32:55;;;;;;;1.70;1.60;;;1.70;1.40;;;2.73;100.00;97212.04;645923;212;31570;-74
2022/01/18 08:35:51;;;;;;;1.55;1.55;;;1.90;1.40;;;2.80;100.00;97213.83;646654;216;31546;-77
2022/01/18 08:38:33;;;;;;;1.58;1.48;;;1.90;1.40;;;3.37;100.00;97216.73;647480;216;32578;-74
2022/01/18 08:41:20;;;;;;;1.65;1.35;;;2.30;1.40;;;3.43;100.00;97213.05;648563;216;31828;-79
2022/01/18 08:44:08;;;;;;;2.00;1.60;;;2.30;1.40;;;3.37;100.00;97215.09;647453;216;31668;-75
2022/01/18 08:46:50;;;;;;;2.30;1.10;;;2.30;1.40;;;3.47;100.00;97216.88;646161;216;31584;-75
2022/01/18 08:49:32;;;;;;;1.50;1.30;;;2.40;1.40;;;3.52;100.00;97222.83;645503;212;31548;-75
2022/01/18 08:52:13;;;;;;;2.00;1.80;;;2.40;1.40;;;3.87;100.00;97223.91;647032;212;31522;-75
2022/01/18 08:54:55;;;;;;;1.60;1.50;;;2.70;1.40;;;3.93;100.00;97230.89;647950;216;31507;-75
2022/01/18 08:57:39;;;;;;;2.40;2.25;;;2.80;1.40;;;4.22;100.00;97222.73;619938;222;32071;-80
2022/01/18 09:00:26;;;;;;;0.88;0.88;;;2.90;1.40;;;4.74;100.00;97225.66;646101;216;31571;-75
2022/01/18 09:03:08;;;;;;;2.47;2.30;;;3.20;1.40;;;4.62;100.00;97227.27;646284;212;31548;-75
2022/01/18 09:05:50;;;;;;;2.20;1.83;;;3.20;1.40;;;5.00;100.00;97225.21;645435;216;31782;-75
2022/01/18 09:08:32;;;;;;;2.35;2.08;;;3.30;1.40;;;5.44;100.00;97230.50;645681;214;31543;-74
2022/01/18 09:11:13;;;;;;;1.95;1.67;;;3.60;1.40;;;5.52;100.00;97232.20;620036;226;31919;-75
2022/01/18 09:13:55;;;;;;;1.62;1.50;;;3.60;1.40;;;5.15;100.00;97232.52;646405;216;31620;-77
2022/01/18 09:16:36;;;;;;;1.70;1.60;;;3.30;1.40;;;5.06;100.00;97235.07;647095;212;32100;-75
2022/01/18 09:19:24;;;;;;;2.70;2.40;;;3.40;1.40;;;5.21;100.00;97240.89;646749;216;31588;-79
2022/01/18 09:22:12;;;;;;;2.30;2.10;;;3.50;1.40;;;5.07;100.00;97243.54;619906;226;31853;-75
2022/01/18 09:24:53;;;;;;;1.70;1.50;;;3.50;1.40;;;5.36;100.00;97243.96;647726;216;32062;-75
2022/01/18 09:27:38;;;;;;;1.00;0.70;;;3.50;1.40;;;5.55;100.00;97246.97;646675;216;32007;-75
2022/01/18 09:30:20;;;;;;;1.48;1.08;;;3.50;1.40;;;5.45;100.00;97249.72;645868;216;31541;-75
2022/01/18 09:33:04;;;;;;;1.10;1.00;;;3.50;1.40;;;5.56;100.00;97250.45;647189;216;42648;-75
2022/01/18 09:35:51;;;;;;;1.62;1.52;;;3.70;1.40;;;5.69;100.00;97249.70;646333;216;31660;-75
2022/01/18 09:38:33;;;;;;;1.83;1.50;;;3.80;1.40;;;5.91;100.00;97253.54;646641;216;31577;-75
2022/01/18 09:41:26;;;;;;;2.15;1.40;;;4.00;1.40;;;5.95;100.00;97255.31;646864;212;42536;-80
2022/01/18 09:44:08;;;;;;;1.90;1.80;;;3.80;1.40;;;5.91;100.00;97260.33;618538;226;42535;-75
2022/01/18 09:46:50;;;;;;;1.20;1.10;;;3.90;1.40;;;6.08;100.00;97260.15;646858;212;31835;-75
2022/01/18 09:49:34;;;;;;;4.30;2.00;;;4.20;1.40;;;6.22;100.00;97264.20;642917;216;31485;-76
2022/01/18 09:52:22;;;;;;;1.73;1.30;;;4.30;1.40;;;6.58;100.00;97256.73;647906;216;31540;-80
2022/01/18 09:55:10;;;;;;;1.10;1.00;;;4.50;1.40;;;6.75;100.00;97256.36;646711;216;31513;-75
2022/01/18 09:57:55;;;;;;;1.60;1.30;;;4.70;1.40;;;6.79;100.00;97258.44;646343;216;31998;-76
2022/01/18 10:00:37;;;;;;;1.93;1.73;;;4.80;1.40;;;7.01;100.00;97255.59;646895;212;31659;-75
2022/01/18 10:03:29;;;;;;;1.50;1.00;;;4.60;1.40;;;6.43;100.00;97251.79;647454;216;31607;-80
2022/01/18 10:06:18;;;;;;;2.45;1.48;;;4.40;1.40;;;6.55;100.00;97249.78;644047;215;31787;-75
2022/01/18 10:08:59;;;;;;;3.22;2.00;;;4.50;1.40;;;6.70;100.00;97245.99;618410;226;31948;-76
2022/01/18 10:12:08;;;;;;;2.80;2.00;;;4.60;1.40;;;6.22;100.00;97248.23;625283;222;23561;-79
2022/01/18 10:14:52;;;;;;;2.60;2.40;;;4.30;1.40;;;6.34;100.00;97255.06;619021;226;32322;-75
2022/01/18 10:17:34;;;;;;;1.70;1.60;;;4.30;1.40;;;6.81;100.00;97248.56;646365;216;31703;-76
2022/01/18 10:20:22;;;;;;;1.47;1.37;;;4.60;1.40;;;7.01;100.00;97246.86;648005;216;31557;-79
2022/01/18 10:23:09;;;;;;;1.83;1.48;;;4.80;1.40;;;6.89;100.00;97239.91;645380;216;31824;-75
2022/01/18 10:25:51;;;;;;;1.70;1.50;;;4.60;1.40;;;6.29;100.00;97238.16;647150;216;31833;-75
2022/01/18 10:28:32;;;;;;;1.60;1.50;;;4.50;1.40;;;6.67;100.00;97236.70;643256;215;31601;-75
2022/01/18 10:31:24;;;;;;;1.60;1.50;;;4.70;1.40;;;6.84;100.00;97231.91;620803;226;32013;-80
2022/01/18 10:36:10;;;;;;;1.05;0.95;;;4.70;1.40;;;6.59;100.00;97223.77;645758;216;31679;-77
2022/01/18 10:38:54;;;;;;;2.05;1.65;;;4.90;1.40;;;7.44;100.00;97211.94;618643;225;32061;-75
2022/01/18 10:41:36;;;;;;;2.33;1.40;;;5.10;1.40;;;7.47;100.00;97211.83;647304;212;31579;-75
2022/01/18 10:44:22;;;;;;;2.40;1.80;;;5.30;1.40;;;7.98;100.00;97207.45;618898;226;31930;-75
2022/01/18 10:47:03;;;;;;;1.70;1.40;;;5.70;1.40;;;8.29;100.00;97196.33;646657;212;31573;-75
2022/01/18 10:49:47;;;;;;;1.50;1.40;;;6.00;1.40;;;8.32;100.00;97196.22;646839;212;31560;-75
2022/01/18 10:52:29;;;;;;;1.60;1.03;;;5.80;1.40;;;8.40;100.00;97186.94;645976;212;32098;-75
2022/01/18 10:55:20;;;;;;;2.20;1.40;;;6.00;1.40;;;8.92;100.00;97184.74;647425;216;31667;-75
2022/01/18 10:58:02;;;;;;;1.48;1.25;;;6.10;1.40;;;8.17;100.00;97193.25;619108;222;31999;-75
2022/01/18 11:00:45;;;;;;;2.27;1.30;;;6.10;1.40;;;6.77;100.00;97185.30;645893;216;31564;-75
2022/01/18 11:03:27;;;;;;;1.90;1.40;;;5.40;1.40;;;6.68;100.00;97184.16;645852;212;31729;-75
2022/01/18 11:06:09;;;;;;;4.00;1.70;;;5.60;1.40;;;6.51;100.00;97181.37;617000;222;32449;-75
2022/01/18 11:08:52;;;;;;;1.40;1.20;;;5.40;1.40;;;7.78;100.00;97176.25;645724;212;31720;-75
2022/01/18 11:11:33;;;;;;;1.83;1.27;;;6.00;1.40;;;7.76;100.00;97170.54;647202;216;31576;-77
2022/01/18 11:14:17;;;;;;;1.53;1.30;;;6.10;1.40;;;8.02;100.00;97167.19;619431;226;32494;-75
2022/01/18 11:16:58;;;;;;;2.00;1.00;;;6.30;1.40;;;8.60;100.00;97160.98;645970;216;32050;-76
2022/01/18 11:19:39;;;;;;;3.42;1.25;;;6.50;1.40;;;8.26;100.00;97159.81;646725;212;31529;-75
2022/01/18 11:22:20;;;;;;;1.85;1.30;;;6.10;1.40;;;8.32;100.00;97157.63;645524;216;31591;-75
2022/01/18 11:25:01;;;;;;;2.63;2.10;;;6.10;1.40;;;7.64;100.00;97160.19;646319;216;32181;-75
2022/01/18 11:27:48;;;;;;;1.50;1.30;;;5.80;1.40;;;8.81;100.00;97155.77;647658;216;38090;-75
2022/01/18 11:30:26;;;;;;;1.60;1.50;;;6.50;1.40;;;9.74;100.00;97157.14;646678;216;31549;-77
2022/01/18 11:35:57;;;;;;;2.53;1.42;;;6.80;1.40;;;9.47;100.00;97151.25;646478;212;32113;-75
2022/01/18 11:38:41;;;;;;;3.00;1.30;;;6.60;1.40;;;8.67;98.18;97148.42;646542;216;31518;-75
2022/01/18 11:41:27;;;;;;;1.80;1.17;;;6.30;1.40;;;8.52;100.00;97152.19;646509;216;42238;-75
2022/01/18 11:44:16;;;;;;;2.77;1.10;;;6.30;1.40;;;9.35;99.72;97149.23;619499;226;32026;-78
2022/01/18 11:47:03;;;;;;;2.40;1.20;;;7.00;1.40;;;10.17;99.19;97144.39;647869;212;31584;-75
2022/01/18 11:49:52;;;;;;;1.20;1.10;;;7.40;1.40;;;10.36;98.56;97139.10;647643;216;31640;-80
2022/01/18 11:52:47;;;;;;;1.65;1.45;;;7.30;1.40;;;10.42;95.44;97144.54;647248;216;42783;-75
2022/01/18 11:55:35;;;;;;;2.47;1.30;;;7.10;1.40;;;10.32;99.24;97142.77;642614;215;31808;-80
2022/01/18 11:58:22;;;;;;;4.40;1.40;;;7.00;1.40;;;9.25;96.22;97140.17;646550;212;31538;-75
2022/01/18 12:01:04;;;;;;;1.70;1.17;;;6.90;1.40;;;9.41;100.00;97137.66;645920;216;31637;-75
2022/01/18 12:03:52;;;;;;;1.40;0.90;;;6.90;1.40;;;10.04;96.49;97137.03;619455;226;31819;-80
2022/01/18 12:06:43;;;;;;;3.07;1.33;;;6.90;1.40;;;9.65;94.06;97134.83;641029;212;42916;-77
2022/01/18 12:09:40;;;;;;;1.80;1.60;;;6.80;1.40;;;8.71;93.03;97131.17;646248;212;31541;-75
2022/01/18 12:15:49;;;;;;;1.77;1.10;;;6.50;1.40;;;8.65;95.95;97122.77;647556;216;31537;-78
2022/01/18 12:18:32;;;;;;;1.47;0.83;;;6.70;1.40;;;10.17;94.43;97123.25;646300;212;31664;-77
2022/01/18 12:21:18;;;;;;;1.30;1.00;;;6.90;1.40;;;10.22;91.83;97118.32;646350;216;42143;-76
2022/01/18 12:24:16;;;;;;;1.23;0.80;;;7.00;1.40;;;10.25;93.78;97115.17;620069;222;31924;-79
2022/01/18 12:27:03;;;;;;;1.90;1.00;;;7.10;1.40;;;9.38;89.21;97120.68;620227;226;31864;-79
2022/01/18 12:30:02;;;;;;;1.00;0.60;;;6.60;1.40;;;8.97;96.11;97118.19;619358;222;31898;-75
2022/01/18 12:32:57;;;;;;;1.30;0.80;;;6.50;1.40;;;9.60;92.26;97115.61;645503;216;31934;-75
2022/01/18 12:35:53;;;;;;;1.70;1.08;;;6.40;1.40;;;8.41;88.85;97116.03;645713;216;31588;-77
2022/01/18 12:38:35;;;;;;;1.03;0.70;;;5.80;1.40;;;8.27;96.11;97112.44;647056;216;31592;-75
2022/01/18 12:41:17;;;;;;;1.00;0.70;;;5.80;1.40;;;8.70;96.21;97111.14;647231;212;31542;-76
2022/01/18 12:46:45;;;;;;;2.60;0.80;;;5.70;1.40;;;7.64;99.93;97117.70;618809;226;31890;-74
2022/01/18 12:49:27;;;;;;;2.40;1.12;;;5.50;1.40;;;7.57;100.00;97122.09;646576;216;32213;-75
2022/01/18 12:52:11;;;;;;;2.40;0.90;;;5.50;1.40;;;7.97;100.00;97113.34;620375;226;31893;-78
2022/01/18 12:54:59;;;;;;;1.07;0.73;;;5.60;1.40;;;7.54;99.58;97117.98;647541;216;31598;-75
2022/01/18 12:57:40;;;;;;;2.40;0.90;;;5.30;1.40;;;7.49;100.00;97117.16;645788;216;31947;-74
2022/01/18 13:00:22;;;;;;;0.70;0.68;;;5.30;1.40;;;7.06;100.00;97111.00;646988;216;32155;-74
2022/01/18 13:03:07;;;;;;;1.97;1.10;;;5.20;1.40;;;6.66;100.00;97113.23;645767;216;31582;-75
2022/01/18 13:05:48;;;;;;;1.90;1.20;;;5.00;1.40;;;7.01;100.00;97105.84;646477;212;31547;-77
2022/01/18 13:08:52;;;;;;;1.20;0.80;;;5.00;1.40;;;6.82;100.00;97108.58;646665;216;31535;-75